Time;durP1;ratioP1;P1;durP2;ratioP2;P2;SDS_P1;SDS_P2;PMS_P1;PMS_P2;Temp;Humidity;BMP_temperature;BMP_pressure;BME280_temperature;BME280_humidity;BME280_pressure;Samples;Min_cycle;Max_cycle;Signal;HPM_P1;HPM_P2
2023/08/07 00:00:22;;;;;;;0.20;0.20;;;15.70;99.90;;;;;;5155301;27;20376;-61
2023/08/07 00:02:48;;;;;;;3.75;0.80;;;16.00;99.90;;;;;;5154988;27;20394;-61
2023/08/07 00:05:13;;;;;;;;;;;15.90;99.90;;;;;;5155896;27;20137;-61
2023/08/07 00:07:39;;;;;;;0.17;0.17;;;15.90;99.90;;;;;;5155403;27;19919;-61
2023/08/07 00:10:05;;;;;;;;;;;15.70;99.90;;;;;;5155836;27;20107;-60
2023/08/07 00:12:31;;;;;;;0.20;0.20;;;15.90;99.90;;;;;;5155077;27;19941;-60
2023/08/07 00:14:56;;;;;;;;;;;15.80;99.90;;;;;;5155374;27;20046;-60
2023/08/07 00:17:22;;;;;;;0.10;0.10;;;16.00;99.90;;;;;;5136471;27;19976;-61
2023/08/07 00:19:47;;;;;;;;;;;16.10;99.90;;;;;;5155362;27;20045;-60
2023/08/07 00:22:13;;;;;;;0.20;0.20;;;15.80;99.90;;;;;;5154709;27;19922;-61
2023/08/07 00:24:38;;;;;;;;;;;15.90;99.90;;;;;;5119001;27;20058;-60
2023/08/07 00:27:06;;;;;;;0.30;0.30;;;15.70;99.90;;;;;;5154286;27;19923;-61
2023/08/07 00:29:32;;;;;;;0.22;0.22;;;16.10;99.90;;;;;;5154640;27;20398;-61
2023/08/07 00:31:58;;;;;;;0.20;0.20;;;15.70;99.90;;;;;;5154542;27;20049;-61
2023/08/07 00:34:23;;;;;;;;;;;15.70;99.90;;;;;;5154996;27;20046;-61
2023/08/07 00:36:49;;;;;;;0.20;0.20;;;15.80;99.90;;;;;;5154475;27;19930;-61
2023/08/07 00:39:15;;;;;;;;;;;16.10;99.90;;;;;;5155044;27;20130;-60
2023/08/07 00:41:41;;;;;;;0.10;0.10;;;15.50;99.90;;;;;;5154306;27;19918;-60
2023/08/07 00:44:06;;;;;;;;;;;15.90;99.90;;;;;;5154803;27;20046;-61
2023/08/07 00:46:32;;;;;;;0.20;0.20;;;15.60;99.90;;;;;;5154409;27;20324;-61
2023/08/07 00:48:57;;;;;;;;;;;15.80;99.90;;;;;;5136208;27;20039;-60
2023/08/07 00:51:24;;;;;;;0.17;0.17;;;15.70;99.90;;;;;;5154040;27;19933;-61
2023/08/07 00:53:50;;;;;;;0.30;0.30;;;15.70;99.90;;;;;;5135941;27;20050;-61
2023/08/07 00:56:16;;;;;;;0.13;0.13;;;15.50;99.90;;;;;;5154246;27;20047;-61
2023/08/07 00:58:42;;;;;;;0.30;0.30;;;15.90;99.90;;;;;;5153938;27;20053;-61
2023/08/07 01:01:08;;;;;;;;;;;15.80;99.90;;;;;;5154217;27;20118;-60
2023/08/07 01:03:34;;;;;;;0.20;0.20;;;15.60;99.90;;;;;;5153452;27;19975;-60
2023/08/07 01:05:59;;;;;;;;;;;15.50;99.90;;;;;;5154040;27;20072;-60
2023/08/07 01:08:25;;;;;;;0.20;0.20;;;15.90;99.90;;;;;;5153645;27;19923;-61
2023/08/07 01:11:36;;;;;;;0.30;0.30;;;15.50;99.90;;;;;;5153703;27;20050;-61
2023/08/07 01:14:07;;;;;;;0.10;0.10;;;15.50;99.90;;;;;;5148119;27;20047;-61
2023/08/07 01:16:55;;;;;;;0.10;0.10;;;15.50;99.90;;;;;;5153471;27;20436;-60
2023/08/07 01:19:27;;;;;;;0.15;0.15;;;15.80;99.90;;;;;;5153397;27;20054;-61
2023/08/07 01:22:12;;;;;;;0.10;0.10;;;15.70;99.90;;;;;;5153288;27;20121;-61
2023/08/07 01:24:45;;;;;;;0.20;0.20;;;15.80;99.90;;;;;;5153403;27;20081;-60
2023/08/07 01:27:17;;;;;;;0.20;0.20;;;15.60;99.90;;;;;;5153407;27;20082;-60
2023/08/07 01:29:59;;;;;;;0.17;0.17;;;15.50;99.90;;;;;;5153365;27;20046;-61
2023/08/07 01:32:46;;;;;;;0.20;0.20;;;15.70;99.90;;;;;;5153385;27;20108;-61
2023/08/07 01:35:15;;;;;;;0.55;0.52;;;15.80;99.90;;;;;;5153185;27;20043;-60
2023/08/07 01:37:42;;;;;;;0.30;0.30;;;15.20;99.90;;;;;;5152586;27;20494;-61
2023/08/07 01:40:10;;;;;;;0.20;0.20;;;15.70;99.90;;;;;;5153089;27;20482;-61
2023/08/07 01:42:36;;;;;;;0.17;0.17;;;15.90;99.90;;;;;;5153032;27;20045;-60
2023/08/07 01:45:03;;;;;;;0.10;0.10;;;15.70;99.90;;;;;;5134734;27;20104;-61
2023/08/07 01:47:29;;;;;;;0.70;0.70;;;15.70;99.90;;;;;;5153079;27;20039;-60
2023/08/07 01:49:55;;;;;;;;;;;15.70;99.90;;;;;;5153238;27;20056;-60
2023/08/07 01:52:21;;;;;;;0.20;0.20;;;15.80;99.90;;;;;;5153269;27;19926;-61
2023/08/07 01:54:47;;;;;;;0.38;0.30;;;15.80;99.90;;;;;;5153268;27;20058;-60
2023/08/07 01:57:12;;;;;;;;;;;15.50;99.90;;;;;;5153336;27;20042;-60
2023/08/07 01:59:38;;;;;;;0.20;0.20;;;15.60;99.90;;;;;;5152856;27;20051;-61
2023/08/07 02:02:03;;;;;;;;;;;15.80;99.90;;;;;;5134552;27;20054;-60
2023/08/07 02:04:29;;;;;;;0.43;0.43;;;15.40;99.90;;;;;;5130615;27;20005;-61
2023/08/07 02:06:55;;;;;;;;;;;15.80;99.90;;;;;;5132494;28;20080;-60
2023/08/07 02:09:21;;;;;;;0.35;0.35;;;15.70;99.90;;;;;;5131638;28;19926;-59
2023/08/07 02:11:46;;;;;;;;;;;16.00;99.90;;;;;;5132498;27;20079;-60
2023/08/07 02:14:12;;;;;;;0.30;0.30;;;15.70;99.90;;;;;;5132206;28;19976;-60
2023/08/07 02:16:37;;;;;;;;;;;15.70;99.90;;;;;;5132277;28;20043;-60
2023/08/07 02:19:03;;;;;;;0.52;0.28;;;16.00;99.90;;;;;;5132084;27;19923;-61
2023/08/07 02:21:29;;;;;;;;;;;15.50;99.90;;;;;;5132406;28;20502;-62
2023/08/07 02:23:54;;;;;;;0.55;0.55;;;15.50;99.90;;;;;;5131998;28;20359;-61
2023/08/07 02:26:20;;;;;;;;;;;15.40;99.90;;;;;;5132386;28;20074;-61
2023/08/07 02:28:45;;;;;;;0.30;0.30;;;15.30;99.90;;;;;;5131953;27;20286;-61
2023/08/07 02:31:11;;;;;;;;;;;15.70;99.90;;;;;;5132239;28;20039;-60
2023/08/07 02:33:36;;;;;;;0.13;0.13;;;15.50;99.90;;;;;;5131886;28;19923;-60
2023/08/07 02:36:02;;;;;;;;;;;15.50;99.90;;;;;;5132264;28;20051;-61
2023/08/07 02:38:28;;;;;;;0.10;0.10;;;15.20;99.90;;;;;;5131781;28;20048;-60
2023/08/07 02:40:53;;;;;;;;;;;15.50;99.90;;;;;;5132231;28;20082;-60
2023/08/07 02:43:19;;;;;;;1.02;0.20;;;15.60;99.90;;;;;;5131710;28;19923;-61
2023/08/07 02:45:44;;;;;;;;;;;15.90;99.90;;;;;;5132218;28;20043;-61
2023/08/07 02:48:10;;;;;;;0.30;0.30;;;15.40;99.90;;;;;;5132438;27;19924;-61
2023/08/07 02:50:36;;;;;;;;;;;15.40;99.90;;;;;;5136313;27;20523;-61
2023/08/07 02:53:02;;;;;;;0.10;0.10;;;15.70;99.90;;;;;;5135680;27;19919;-61
2023/08/07 02:55:27;;;;;;;;;;;15.50;99.90;;;;;;5135725;27;20488;-60
2023/08/07 02:57:53;;;;;;;0.20;0.20;;;15.50;99.90;;;;;;5135511;27;20026;-60
2023/08/07 03:00:19;;;;;;;;;;;15.80;99.90;;;;;;5135903;27;20061;-60
2023/08/07 03:02:44;;;;;;;0.73;0.73;;;15.90;99.90;;;;;;5136138;27;19946;-60
2023/08/07 03:05:10;;;;;;;;;;;15.80;99.90;;;;;;5137903;27;20046;-61
2023/08/07 03:07:36;;;;;;;0.47;0.47;;;15.70;99.90;;;;;;5155959;27;19934;-61
2023/08/07 03:10:01;;;;;;;0.30;0.30;;;15.40;99.90;;;;;;5155859;27;20051;-61
2023/08/07 03:12:27;;;;;;;;;;;15.70;99.90;;;;;;5156392;27;20038;-60
2023/08/07 03:14:53;;;;;;;0.30;0.30;;;16.00;99.90;;;;;;5155936;27;19919;-61
2023/08/07 03:17:20;;;;;;;;;;;15.40;99.90;;;;;;5137808;27;20043;-62
2023/08/07 03:19:46;;;;;;;0.50;0.50;;;16.00;99.90;;;;;;5137597;27;19937;-63
2023/08/07 03:22:12;;;;;;;0.50;0.50;;;15.10;99.90;;;;;;5155622;27;20043;-61
2023/08/07 03:24:38;;;;;;;;;;;16.10;99.90;;;;;;5156195;27;20046;-61
2023/08/07 03:27:04;;;;;;;0.47;0.47;;;15.70;99.90;;;;;;5137235;27;19967;-60
2023/08/07 03:29:29;;;;;;;;;;;15.40;99.90;;;;;;5156013;27;20046;-60
2023/08/07 03:31:55;;;;;;;0.30;0.30;;;15.40;99.90;;;;;;5137022;27;19922;-59
2023/08/07 03:34:21;;;;;;;;;;;15.30;99.90;;;;;;5155982;27;20043;-62
2023/08/07 03:36:46;;;;;;;0.73;0.73;;;15.40;99.90;;;;;;5155597;27;20356;-61
2023/08/07 03:39:12;;;;;;;;;;;15.40;99.90;;;;;;5156016;27;20066;-60
2023/08/07 03:41:38;;;;;;;0.10;0.10;;;15.40;99.90;;;;;;5155716;27;20030;-61
2023/08/07 03:44:04;;;;;;;0.60;0.60;;;15.20;99.90;;;;;;5155698;27;20047;-60
2023/08/07 03:46:29;;;;;;;0.40;0.40;;;15.60;99.90;;;;;;5155653;27;20070;-61
2023/08/07 03:48:55;;;;;;;;;;;15.40;99.90;;;;;;5156027;27;20095;-60
2023/08/07 03:51:21;;;;;;;0.52;0.43;;;15.70;99.90;;;;;;5136902;27;20613;-60
2023/08/07 03:53:46;;;;;;;;;;;15.30;99.90;;;;;;5155914;27;20057;-60
2023/08/07 03:56:12;;;;;;;0.20;0.20;;;15.00;99.90;;;;;;5155360;27;19919;-61
2023/08/07 03:58:38;;;;;;;;;;;15.60;99.90;;;;;;5155796;27;20126;-60
2023/08/07 04:01:03;;;;;;;0.40;0.40;;;15.20;99.90;;;;;;5154969;27;19925;-60
2023/08/07 04:03:29;;;;;;;3.05;0.75;;;15.20;99.90;;;;;;5155038;27;20173;-61
2023/08/07 04:05:55;;;;;;;0.47;0.45;;;15.30;99.90;;;;;;5155243;27;20409;-61
2023/08/07 04:08:22;;;;;;;0.65;0.55;;;15.30;99.90;;;;;;5155080;27;20557;-60
2023/08/07 04:11:00;;;;;;;0.65;0.50;;;15.40;99.90;;;;;;5155131;27;20046;-59
2023/08/07 04:13:27;;;;;;;0.20;0.20;;;15.50;99.90;;;;;;5155014;27;20093;-60
2023/08/07 04:15:52;;;;;;;0.40;0.40;;;15.60;99.90;;;;;;5155027;27;20078;-61
2023/08/07 04:18:18;;;;;;;0.20;0.20;;;15.60;99.90;;;;;;5154927;27;20520;-60
2023/08/07 04:20:48;;;;;;;;;;;15.30;99.90;;;;;;5155349;27;20550;-60
2023/08/07 04:23:14;;;;;;;1.65;0.75;;;15.50;99.90;;;;;;5154809;27;19925;-59
2023/08/07 04:25:39;;;;;;;2.28;0.57;;;15.50;99.90;;;;;;5154882;27;20359;-59
2023/08/07 04:28:05;;;;;;;;;;;15.60;99.90;;;;;;5155545;27;20046;-61
2023/08/07 04:30:31;;;;;;;1.88;1.20;;;15.00;99.90;;;;;;5154696;27;19983;-60
2023/08/07 04:32:56;;;;;;;;;;;15.40;99.90;;;;;;5136905;27;20089;-61
2023/08/07 04:35:22;;;;;;;0.10;0.10;;;15.20;99.90;;;;;;5136038;27;19923;-61
2023/08/07 04:37:47;;;;;;;3.53;0.45;;;15.20;99.90;;;;;;5154694;27;20050;-60
2023/08/07 04:40:13;;;;;;;;;;;15.00;99.90;;;;;;5155061;27;20554;-60
2023/08/07 04:42:39;;;;;;;1.27;0.60;;;15.10;99.90;;;;;;5154592;27;19926;-60
2023/08/07 04:45:04;;;;;;;;;;;15.00;99.90;;;;;;5155171;27;20043;-59
2023/08/07 04:47:30;;;;;;;8.70;0.82;;;15.00;99.90;;;;;;5154402;27;19919;-61
2023/08/07 04:49:56;;;;;;;;;;;15.10;99.90;;;;;;5136500;27;20061;-60
2023/08/07 04:52:21;;;;;;;0.28;0.28;;;15.20;99.90;;;;;;5154304;27;19919;-59
2023/08/07 04:54:47;;;;;;;0.60;0.60;;;17.00;99.90;;;;;;5154259;27;20086;-60
2023/08/07 04:57:13;;;;;;;0.47;0.47;;;15.20;99.90;;;;;;5154235;27;20046;-61
2023/08/07 04:59:38;;;;;;;4.75;0.60;;;15.40;99.90;;;;;;5154211;27;20048;-60
2023/08/07 05:02:04;;;;;;;;;;;15.30;99.90;;;;;;5154484;27;20179;-60
2023/08/07 05:04:30;;;;;;;0.93;0.70;;;15.40;99.90;;;;;;5153693;27;19927;-60
2023/08/07 05:06:55;;;;;;;;;;;15.50;99.90;;;;;;5154406;27;20053;-60
2023/08/07 05:09:21;;;;;;;0.30;0.30;;;15.70;99.90;;;;;;5153856;27;19942;-60
2023/08/07 05:11:46;;;;;;;0.30;0.30;;;15.50;99.90;;;;;;5153795;27;20049;-59
2023/08/07 05:14:12;;;;;;;;;;;15.60;99.90;;;;;;5154273;27;20047;-60
2023/08/07 05:16:38;;;;;;;0.38;0.38;;;15.40;99.90;;;;;;5153872;27;19925;-60
2023/08/07 05:19:03;;;;;;;0.20;0.20;;;16.00;99.90;;;;;;5153896;27;20078;-61
2023/08/07 05:21:29;;;;;;;;;;;15.80;99.90;;;;;;5154194;27;20836;-61
2023/08/07 05:23:55;;;;;;;0.98;0.65;;;15.70;99.90;;;;;;5153744;27;20422;-59
2023/08/07 05:26:21;;;;;;;;;;;15.70;99.90;;;;;;5154063;27;20130;-59
2023/08/07 05:28:47;;;;;;;0.35;0.32;;;16.00;99.90;;;;;;5153669;27;19923;-59
2023/08/07 05:31:12;;;;;;;0.22;0.22;;;15.70;99.90;;;;;;5153747;27;20166;-60
2023/08/07 05:33:38;;;;;;;2.20;0.80;;;15.50;99.90;;;;;;5153621;27;20431;-60
2023/08/07 05:36:06;;;;;;;0.20;0.20;;;15.20;99.90;;;;;;5153611;27;20055;-59
2023/08/07 05:38:32;;;;;;;1.85;1.38;;;15.40;99.90;;;;;;5153579;27;20047;-60
2023/08/07 05:40:57;;;;;;;0.40;0.40;;;15.50;99.90;;;;;;5153473;27;20042;-60
2023/08/07 05:43:23;;;;;;;;;;;15.70;99.90;;;;;;5153834;27;20438;-60
2023/08/07 05:45:49;;;;;;;0.10;0.10;;;15.80;99.90;;;;;;5153425;27;19926;-59
2023/08/07 05:48:16;;;;;;;;;;;16.00;99.90;;;;;;5153856;27;20126;-60
2023/08/07 05:50:42;;;;;;;0.20;0.20;;;15.80;99.90;;;;;;5153509;27;20282;-60
2023/08/07 05:53:07;;;;;;;1.40;0.68;;;15.70;99.90;;;;;;5153269;27;20045;-60
2023/08/07 05:55:34;;;;;;;0.50;0.50;;;16.00;99.90;;;;;;5153405;27;20047;-59
2023/08/07 05:58:00;;;;;;;1.10;1.05;;;15.50;99.90;;;;;;5153404;27;20066;-60
2023/08/07 06:00:26;;;;;;;2.00;1.90;;;15.60;99.90;;;;;;5135023;27;20170;-58
2023/08/07 06:02:51;;;;;;;;;;;15.50;99.90;;;;;;5153786;27;20042;-62
2023/08/07 06:05:17;;;;;;;0.98;0.98;;;15.50;99.90;;;;;;5153358;27;19972;-62
2023/08/07 06:07:43;;;;;;;0.20;0.20;;;15.60;99.90;;;;;;5153480;27;20102;-60
2023/08/07 06:10:08;;;;;;;;;;;15.60;99.90;;;;;;5153871;27;20042;-59
2023/08/07 06:12:34;;;;;;;2.60;1.45;;;15.70;99.90;;;;;;5153101;27;19923;-60
2023/08/07 06:14:59;;;;;;;0.30;0.30;;;15.70;99.90;;;;;;5152814;27;20099;-60
2023/08/07 06:17:25;;;;;;;0.28;0.28;;;15.40;99.90;;;;;;5153124;27;20046;-59
2023/08/07 06:19:52;;;;;;;;;;;14.90;99.90;;;;;;5153367;27;20550;-59
2023/08/07 06:22:17;;;;;;;0.35;0.15;;;15.20;99.90;;;;;;5152934;27;20380;-60
2023/08/07 06:24:43;;;;;;;0.17;0.17;;;15.40;99.90;;;;;;5137256;27;20133;-59
2023/08/07 06:27:08;;;;;;;;;;;15.30;99.90;;;;;;5157617;27;20050;-60
2023/08/07 06:29:34;;;;;;;0.80;0.80;;;15.50;99.90;;;;;;5156594;27;19923;-59
2023/08/07 06:32:00;;;;;;;;;;;15.30;99.90;;;;;;5157518;27;20049;-58
2023/08/07 06:34:25;;;;;;;0.10;0.10;;;15.70;99.90;;;;;;5157042;27;19962;-60
2023/08/07 06:36:51;;;;;;;;;;;15.30;99.90;;;;;;5139056;27;20118;-60
2023/08/07 06:39:17;;;;;;;0.40;0.40;;;15.00;99.90;;;;;;5156437;27;19972;-60
2023/08/07 06:41:42;;;;;;;;;;;15.10;99.90;;;;;;5156804;27;20077;-59
2023/08/07 06:44:08;;;;;;;0.13;0.13;;;14.80;99.90;;;;;;5156827;27;19923;-61
2023/08/07 06:46:33;;;;;;;;;;;14.10;99.90;;;;;;5156930;27;20051;-59
2023/08/07 06:48:59;;;;;;;0.35;0.35;;;14.20;99.90;;;;;;5156743;27;19923;-60
2023/08/07 06:51:25;;;;;;;;;;;14.30;99.90;;;;;;5157352;27;20046;-61
2023/08/07 06:53:50;;;;;;;0.35;0.35;;;14.20;99.90;;;;;;5156528;27;19919;-60
2023/08/07 06:56:16;;;;;;;0.28;0.28;;;14.20;99.90;;;;;;5137978;27;20043;-60
2023/08/07 06:58:42;;;;;;;;;;;14.20;99.90;;;;;;5156321;27;20046;-60
2023/08/07 07:01:07;;;;;;;0.63;0.30;;;14.50;99.90;;;;;;5149498;27;19980;-65
2023/08/07 07:03:33;;;;;;;8.80;3.25;;;14.40;99.90;;;;;;5137814;27;20069;-59
2023/08/07 07:05:59;;;;;;;;;;;14.40;99.90;;;;;;5154755;27;20061;-60
2023/08/07 07:08:24;;;;;;;1.98;0.95;;;14.20;99.90;;;;;;5155303;27;19922;-60
2023/08/07 07:10:50;;;;;;;;;;;15.00;99.90;;;;;;5156230;27;20099;-61
2023/08/07 07:13:16;;;;;;;0.30;0.30;;;14.90;99.90;;;;;;5136990;27;20023;-61
2023/08/07 07:15:41;;;;;;;0.20;0.20;;;15.10;99.90;;;;;;5132178;27;20050;-61
2023/08/07 07:18:07;;;;;;;;;;;15.00;99.90;;;;;;5155049;27;20039;-60
2023/08/07 07:20:33;;;;;;;0.65;0.65;;;15.40;99.90;;;;;;5155920;27;19954;-59
2023/08/07 07:22:58;;;;;;;0.30;0.30;;;15.60;99.90;;;;;;5155625;27;20494;-59
2023/08/07 07:25:24;;;;;;;0.38;0.38;;;15.50;99.90;;;;;;5155242;27;20086;-61
2023/08/07 07:27:50;;;;;;;0.75;0.55;;;15.50;99.90;;;;;;5155702;27;20397;-60
2023/08/07 07:30:15;;;;;;;;;;;15.70;99.90;;;;;;5155998;27;20043;-59
2023/08/07 07:32:41;;;;;;;0.55;0.55;;;16.00;99.90;;;;;;5136208;27;19922;-60
2023/08/07 07:35:07;;;;;;;0.30;0.30;;;15.80;99.90;;;;;;5154478;27;20482;-61
2023/08/07 07:37:33;;;;;;;;;;;15.60;99.90;;;;;;5155055;27;20135;-61
2023/08/07 07:39:59;;;;;;;0.40;0.40;;;15.70;99.90;;;;;;5154576;27;19929;-60
2023/08/07 07:42:25;;;;;;;0.50;0.47;;;15.30;99.90;;;;;;5135992;27;20042;-61
2023/08/07 07:44:50;;;;;;;;;;;15.00;99.90;;;;;;5155886;27;20078;-60
2023/08/07 07:47:16;;;;;;;0.40;0.40;;;15.40;99.90;;;;;;5149283;27;19967;-60
2023/08/07 07:49:47;;;;;;;;;;;15.20;99.90;;;;;;5155277;27;20082;-60
2023/08/07 07:52:13;;;;;;;0.20;0.20;;;15.10;99.90;;;;;;5153658;27;19975;-61
2023/08/07 07:54:39;;;;;;;0.90;0.40;;;15.10;99.90;;;;;;5152641;27;20042;-61
2023/08/07 07:57:05;;;;;;;0.30;0.30;;;15.20;99.90;;;;;;5149272;27;20039;-60
2023/08/07 07:59:30;;;;;;;;;;;15.40;99.90;;;;;;5154516;27;20057;-61
2023/08/07 08:01:56;;;;;;;0.17;0.17;;;15.50;99.90;;;;;;5152244;27;20029;-61
2023/08/07 08:04:22;;;;;;;;;;;16.00;99.90;;;;;;5131496;27;20116;-60
2023/08/07 08:06:50;;;;;;;0.10;0.10;;;15.70;99.90;;;;;;5132865;27;19927;-60
2023/08/07 08:09:15;;;;;;;1.55;0.52;;;16.10;99.90;;;;;;5132687;27;20043;-60
2023/08/07 08:11:41;;;;;;;0.90;0.63;;;16.40;99.90;;;;;;5108170;27;20106;-61
2023/08/07 08:14:07;;;;;;;;;;;16.20;99.90;;;;;;5112919;28;20043;-60
2023/08/07 08:16:33;;;;;;;0.10;0.10;;;16.00;99.90;;;;;;5110541;28;19927;-60
2023/08/07 08:18:58;;;;;;;;;;;16.30;99.90;;;;;;5132861;27;20046;-60
2023/08/07 08:21:24;;;;;;;0.22;0.22;;;16.40;99.90;;;;;;5133154;27;19923;-60
2023/08/07 08:23:50;;;;;;;;;;;16.50;99.90;;;;;;5132514;27;20047;-61
2023/08/07 08:26:15;;;;;;;0.50;0.50;;;16.70;99.90;;;;;;5133007;27;20431;-61
2023/08/07 08:28:41;;;;;;;;;;;16.80;99.90;;;;;;5133442;27;20130;-60
2023/08/07 08:31:07;;;;;;;0.22;0.22;;;16.90;99.90;;;;;;5131551;27;19927;-62
2023/08/07 08:33:32;;;;;;;;;;;16.50;99.90;;;;;;5133203;27;20068;-61
2023/08/07 08:35:58;;;;;;;0.38;0.38;;;16.90;99.90;;;;;;5133161;27;19923;-61
2023/08/07 08:38:25;;;;;;;;;;;16.80;99.90;;;;;;5111736;27;20039;-61
2023/08/07 08:40:52;;;;;;;0.20;0.20;;;16.60;99.90;;;;;;5093142;28;19924;-61
2023/08/07 08:43:18;;;;;;;1.45;1.13;;;16.80;99.90;;;;;;5104122;28;20443;-59
2023/08/07 08:45:45;;;;;;;0.22;0.22;;;16.90;99.90;;;;;;5111213;28;20083;-61
2023/08/07 08:48:17;;;;;;;2.42;2.25;;;17.30;99.90;;;;;;5111600;28;20058;-60
2023/08/07 08:50:43;;;;;;;0.45;0.45;;;17.10;99.90;;;;;;5111809;27;20051;-62
2023/08/07 08:53:09;;;;;;;0.22;0.22;;;17.50;99.90;;;;;;5121909;27;20054;-61
2023/08/07 08:55:35;;;;;;;;;;;17.20;99.90;;;;;;5132620;27;20062;-61
2023/08/07 08:58:01;;;;;;;0.20;0.20;;;16.80;99.90;;;;;;5131924;27;19920;-61
2023/08/07 09:00:29;;;;;;;;;;;17.00;99.90;;;;;;5132104;27;20047;-61
2023/08/07 09:02:55;;;;;;;0.55;0.32;;;17.30;99.90;;;;;;5131464;27;19923;-61
2023/08/07 09:05:20;;;;;;;;;;;17.20;99.90;;;;;;5148521;27;20062;-61
2023/08/07 09:07:48;;;;;;;0.32;0.32;;;17.50;99.90;;;;;;5152165;27;20369;-61
2023/08/07 09:10:15;;;;;;;0.10;0.10;;;17.10;99.90;;;;;;5152279;27;20122;-61
2023/08/07 09:13:06;;;;;;;1.35;0.93;;;17.10;99.90;;;;;;5151537;27;20042;-61
2023/08/07 09:15:33;;;;;;;0.68;0.40;;;17.20;99.90;;;;;;5151563;27;20042;-59
2023/08/07 09:17:59;;;;;;;0.30;0.30;;;17.40;99.90;;;;;;5152554;27;20226;-60
2023/08/07 09:20:25;;;;;;;3.40;0.95;;;17.20;99.90;;;;;;5152702;27;20074;-60
2023/08/07 09:22:51;;;;;;;0.13;0.13;;;17.40;99.90;;;;;;5151933;27;20042;-61
2023/08/07 09:25:27;;;;;;;;;;;17.20;99.90;;;;;;5153139;27;20480;-61
2023/08/07 09:27:54;;;;;;;0.25;0.22;;;17.70;99.90;;;;;;5153223;27;20321;-60
2023/08/07 09:30:21;;;;;;;0.10;0.10;;;17.60;99.90;;;;;;5152025;27;20053;-62
2023/08/07 09:32:48;;;;;;;0.20;0.20;;;17.30;99.90;;;;;;5152918;27;20077;-60
2023/08/07 09:35:13;;;;;;;0.35;0.35;;;17.10;99.90;;;;;;5152984;27;20121;-61
2023/08/07 09:37:39;;;;;;;0.47;0.47;;;17.20;99.90;;;;;;5152585;27;20163;-59
2023/08/07 09:40:06;;;;;;;;;;;17.10;99.90;;;;;;5153510;27;20704;-60
2023/08/07 09:42:32;;;;;;;0.30;0.30;;;16.70;99.90;;;;;;5149006;27;20009;-63
2023/08/07 09:45:00;;;;;;;0.30;0.30;;;16.90;99.90;;;;;;5140224;27;20610;-62
2023/08/07 09:47:26;;;;;;;0.30;0.25;;;16.50;99.90;;;;;;5129974;27;20153;-62
2023/08/07 09:49:54;;;;;;;;;;;16.60;99.90;;;;;;5133943;27;20066;-60
2023/08/07 09:52:20;;;;;;;0.22;0.22;;;16.50;99.90;;;;;;5151678;27;19987;-61
2023/08/07 09:54:45;;;;;;;;;;;16.60;99.90;;;;;;5153109;27;20803;-59
2023/08/07 09:57:11;;;;;;;0.55;0.38;;;16.80;99.90;;;;;;5152191;27;19935;-59
2023/08/07 09:59:37;;;;;;;;;;;16.60;99.90;;;;;;5153191;27;20058;-59
2023/08/07 10:02:03;;;;;;;0.20;0.20;;;17.10;99.90;;;;;;5152485;27;20263;-59
2023/08/07 10:04:30;;;;;;;0.17;0.17;;;16.80;99.90;;;;;;5134012;27;20053;-60
2023/08/07 10:06:57;;;;;;;0.15;0.15;;;17.40;99.90;;;;;;5152147;27;20828;-61
2023/08/07 10:09:23;;;;;;;0.20;0.20;;;17.30;99.90;;;;;;5152130;27;20046;-60
2023/08/07 10:11:51;;;;;;;0.00;0.00;;;17.30;99.90;;;;;;5152290;27;20052;-58
2023/08/07 10:14:18;;;;;;;0.60;0.40;;;17.90;99.90;;;;;;5152843;27;20133;-59
2023/08/07 10:16:46;;;;;;;0.85;0.20;;;17.40;99.90;;;;;;5135659;27;20043;-59
2023/08/07 10:19:12;;;;;;;0.30;0.30;;;17.30;99.90;;;;;;5131539;28;20047;-60
2023/08/07 10:21:41;;;;;;;0.20;0.20;;;17.70;99.90;;;;;;5131499;28;20130;-60
2023/08/07 10:24:08;;;;;;;0.20;0.20;;;17.50;99.90;;;;;;5130793;28;20111;-59
2023/08/07 10:26:38;;;;;;;0.10;0.10;;;17.70;99.90;;;;;;5131035;28;20046;-59
2023/08/07 10:29:08;;;;;;;0.38;0.38;;;17.50;99.90;;;;;;5131621;28;20064;-60
2023/08/07 10:31:35;;;;;;;0.35;0.22;;;17.20;99.90;;;;;;5131629;28;20051;-59
2023/08/07 10:34:02;;;;;;;0.17;0.17;;;18.10;99.90;;;;;;5131411;28;20054;-60
2023/08/07 10:36:35;;;;;;;0.20;0.20;;;18.00;99.90;;;;;;5131967;28;20039;-59
2023/08/07 10:39:11;;;;;;;0.20;0.20;;;17.80;99.90;;;;;;5131750;28;20043;-59
2023/08/07 10:41:41;;;;;;;;;;;18.00;99.90;;;;;;5130911;28;20486;-61
2023/08/07 10:44:29;;;;;;;0.10;0.10;;;18.20;99.90;;;;;;5131499;28;19950;-61
2023/08/07 10:46:56;;;;;;;0.20;0.20;;;18.10;99.90;;;;;;5131367;28;20039;-59
2023/08/07 10:49:38;;;;;;;0.10;0.10;;;18.40;99.90;;;;;;5151343;27;20399;-60
2023/08/07 10:52:12;;;;;;;0.10;0.10;;;17.80;99.90;;;;;;5152392;27;20049;-59
2023/08/07 10:54:43;;;;;;;0.88;0.88;;;17.70;99.90;;;;;;5152102;27;20107;-60
2023/08/07 10:57:16;;;;;;;0.20;0.20;;;18.20;99.90;;;;;;5151802;27;20082;-59
2023/08/07 11:00:05;;;;;;;0.38;0.22;;;17.60;99.90;;;;;;5151881;27;20554;-60
2023/08/07 11:02:33;;;;;;;0.30;0.30;;;17.30;99.90;;;;;;5137809;27;20104;-59
2023/08/07 11:04:59;;;;;;;0.15;0.15;;;17.20;99.90;;;;;;5151393;27;20088;-61
2023/08/07 11:07:26;;;;;;;0.65;0.65;;;16.80;99.90;;;;;;5151837;27;20054;-59
2023/08/07 11:09:56;;;;;;;0.20;0.20;;;16.70;99.90;;;;;;5153398;27;20051;-60
2023/08/07 11:12:26;;;;;;;0.10;0.10;;;16.70;99.90;;;;;;5155430;27;20083;-60
2023/08/07 11:14:52;;;;;;;0.10;0.10;;;16.30;99.90;;;;;;5155029;27;20529;-59
2023/08/07 11:17:19;;;;;;;0.10;0.10;;;16.70;99.90;;;;;;5155524;27;20051;-61
2023/08/07 11:19:47;;;;;;;0.20;0.20;;;16.80;99.90;;;;;;5154721;27;20432;-60
2023/08/07 11:22:16;;;;;;;0.15;0.15;;;16.90;99.90;;;;;;5136530;27;20158;-59
2023/08/07 11:24:41;;;;;;;0.70;0.70;;;16.90;99.90;;;;;;5154602;27;20058;-60
2023/08/07 11:27:08;;;;;;;0.47;0.45;;;16.70;99.90;;;;;;5154617;27;20051;-60
2023/08/07 11:29:33;;;;;;;0.73;0.40;;;17.20;99.90;;;;;;5154436;27;20502;-60
2023/08/07 11:31:59;;;;;;;;;;;16.70;99.90;;;;;;5136405;27;20046;-61
2023/08/07 11:34:25;;;;;;;0.68;0.45;;;17.20;99.90;;;;;;5154473;27;19922;-59
2023/08/07 11:36:51;;;;;;;0.20;0.20;;;17.40;99.90;;;;;;5136340;27;20051;-60
2023/08/07 11:39:18;;;;;;;3.33;0.63;;;17.40;99.90;;;;;;5149330;27;20157;-60
2023/08/07 11:41:44;;;;;;;0.20;0.20;;;17.20;99.90;;;;;;5134570;27;20074;-59
2023/08/07 11:44:10;;;;;;;0.22;0.22;;;17.70;99.90;;;;;;5153056;27;20054;-60
2023/08/07 11:46:36;;;;;;;0.10;0.10;;;17.20;99.90;;;;;;5152065;27;20432;-60
2023/08/07 11:49:04;;;;;;;0.10;0.10;;;16.90;99.90;;;;;;5149728;27;20070;-60
2023/08/07 11:51:30;;;;;;;0.10;0.10;;;16.90;99.90;;;;;;5153726;27;20043;-60
2023/08/07 11:53:59;;;;;;;0.10;0.10;;;16.70;99.90;;;;;;5154504;27;20121;-60
2023/08/07 11:56:25;;;;;;;0.20;0.20;;;16.80;99.90;;;;;;5153632;27;20055;-61
2023/08/07 11:58:52;;;;;;;0.30;0.30;;;17.20;99.90;;;;;;5153913;27;20391;-60
2023/08/07 12:01:20;;;;;;;0.30;0.30;;;18.10;99.90;;;;;;5153696;27;20051;-60
2023/08/07 12:03:54;;;;;;;0.30;0.30;;;18.30;99.90;;;;;;5154049;27;20043;-60
2023/08/07 12:06:21;;;;;;;0.08;0.08;;;18.50;99.90;;;;;;5154631;27;20065;-60
2023/08/07 12:08:50;;;;;;;0.10;0.10;;;18.10;99.90;;;;;;5153859;27;20051;-60
2023/08/07 12:11:16;;;;;;;2.00;0.30;;;18.20;99.90;;;;;;5135703;27;20059;-61
2023/08/07 12:13:44;;;;;;;1.50;0.95;;;18.30;99.90;;;;;;5153695;27;20042;-60
2023/08/07 12:16:15;;;;;;;0.10;0.10;;;18.10;99.90;;;;;;5153864;27;20051;-60
2023/08/07 12:18:45;;;;;;;0.25;0.25;;;18.30;99.90;;;;;;5153269;27;20042;-61
2023/08/07 12:21:13;;;;;;;0.10;0.10;;;18.20;99.90;;;;;;5153804;27;20102;-59
2023/08/07 12:23:39;;;;;;;0.10;0.10;;;18.50;99.90;;;;;;5153545;27;20034;-60
2023/08/07 12:26:06;;;;;;;1.25;0.75;;;18.60;99.90;;;;;;5153506;27;20532;-60
2023/08/07 12:28:35;;;;;;;0.20;0.20;;;18.70;99.90;;;;;;5154021;27;20050;-61
2023/08/07 12:31:02;;;;;;;0.10;0.10;;;18.40;99.90;;;;;;5153813;27;20042;-60
2023/08/07 12:33:29;;;;;;;0.25;0.25;;;18.40;99.90;;;;;;5153546;27;20087;-59
2023/08/07 12:35:55;;;;;;;0.20;0.20;;;18.60;99.90;;;;;;5153544;27;20043;-60
2023/08/07 12:38:21;;;;;;;0.30;0.30;;;18.50;99.90;;;;;;5153866;27;20042;-59
2023/08/07 12:40:47;;;;;;;0.30;0.30;;;18.20;99.90;;;;;;5153145;27;20577;-60
2023/08/07 12:43:12;;;;;;;0.25;0.25;;;18.30;99.90;;;;;;5153401;27;20065;-61
2023/08/07 12:45:38;;;;;;;0.10;0.10;;;18.70;99.90;;;;;;5152369;27;20079;-60
2023/08/07 12:48:05;;;;;;;0.75;0.70;;;18.90;99.90;;;;;;5151818;27;20042;-60
2023/08/07 12:50:30;;;;;;;0.10;0.10;;;18.80;99.90;;;;;;5153270;27;20154;-61
2023/08/07 12:52:56;;;;;;;0.60;0.40;;;18.60;99.90;;;;;;5152996;27;20130;-60
2023/08/07 12:55:22;;;;;;;0.65;0.65;;;18.70;99.90;;;;;;5152846;27;20490;-61
2023/08/07 12:57:49;;;;;;;2.38;0.68;;;20.50;99.90;;;;;;5153254;27;20049;-60
2023/08/07 13:00:16;;;;;;;0.10;0.10;;;18.40;99.90;;;;;;5153332;27;20053;-59
2023/08/07 13:02:42;;;;;;;0.22;0.22;;;18.20;99.90;;;;;;5152753;27;20043;-61
2023/08/07 13:05:10;;;;;;;0.47;0.47;;;17.70;99.90;;;;;;5152640;27;20086;-61